Are you planning a trip to Merritt Island?

Let us help you minimize your time at the FBO, so you can whisk off to what matters most.

We offer:

  • Overnights
  • Tie Down Parking
  • Hangar Parking
  • Full-Service Fueling
  • Wash and Detailing
  • Maintenance
  • Rental Car Assistance

FBO Reservation Request

    Aircraft Information

  • Pilot/Contact Information

  • Special Requests

 

Verification

Airport Information

Identifier: KCOI
Non-Towered
Runway: 11 / 29
3601 X 75 ft
Surface: Asphalt

CTAF/UNICOM: 122.975
AWOS-3: 119.025
ORL APP: 132.65

Area Weather

Patrick AFB (KCOF) METAR:

KCOF 210358Z AUTO 08017KT 10SM CLR 26/21 A3010 RMK AO2 SLP197 T02620214

Titusville (KTIX) METAR:

KTIX 210047Z 07015KT 6SM BR SCT030 BKN060 27/22 A3011 RMK LAST

Melbourne (KMLB) METAR:

KMLB 210353Z AUTO 09011KT 10SM FEW029 SCT037 SCT065 27/21 A3010 RMK AO2 SLP193 T02670206

Hours of Operation

Mon: 7:00am - 8:00pm EST
Tue: 7:00am - 8:00pm EST
Wed: 7:00am - 8:00pm EST
Thu: 7:00am - 8:00pm EST
Fri: 7:00am - 8:00pm EST
Sat: 7:00am - 8:00pm EST
Sun: 7:00am - 8:00pm EST

Contact Us

Merritt Island Airport
900 Airport Road
Merritt Island, FL 32952

P: +1 (321) 453-2222